sensor_id;sensor_type;location;lat;lon;timestamp;P1;durP1;ratioP1;P2;durP2;ratioP2
4694;SDS011;2361;49.540;8.390;2023-08-17T00:02:15;1.60;;;1.50;;
4694;SDS011;2361;49.540;8.390;2023-08-17T00:04:42;1.33;;;0.90;;
4694;SDS011;2361;49.540;8.390;2023-08-17T00:07:09;1.47;;;1.37;;
4694;SDS011;2361;49.540;8.390;2023-08-17T00:09:37;1.43;;;1.33;;
4694;SDS011;2361;49.540;8.390;2023-08-17T00:12:04;1.43;;;1.33;;
4694;SDS011;2361;49.540;8.390;2023-08-17T00:14:31;2.03;;;1.53;;
4694;SDS011;2361;49.540;8.390;2023-08-17T00:16:58;1.70;;;1.60;;
4694;SDS011;2361;49.540;8.390;2023-08-17T00:19:25;1.00;;;1.00;;
4694;SDS011;2361;49.540;8.390;2023-08-17T00:21:53;0.90;;;0.90;;
4694;SDS011;2361;49.540;8.390;2023-08-17T00:24:21;1.00;;;1.00;;
4694;SDS011;2361;49.540;8.390;2023-08-17T00:26:48;1.13;;;1.13;;
4694;SDS011;2361;49.540;8.390;2023-08-17T00:29:15;1.90;;;1.23;;
4694;SDS011;2361;49.540;8.390;2023-08-17T00:31:43;3.10;;;1.87;;
4694;SDS011;2361;49.540;8.390;2023-08-17T00:34:10;1.70;;;1.57;;
4694;SDS011;2361;49.540;8.390;2023-08-17T00:36:37;2.20;;;1.90;;
4694;SDS011;2361;49.540;8.390;2023-08-17T00:39:04;1.50;;;1.40;;
4694;SDS011;2361;49.540;8.390;2023-08-17T00:41:31;1.67;;;1.57;;
4694;SDS011;2361;49.540;8.390;2023-08-17T00:43:59;1.90;;;1.67;;
4694;SDS011;2361;49.540;8.390;2023-08-17T00:46:27;1.97;;;1.50;;
4694;SDS011;2361;49.540;8.390;2023-08-17T00:48:56;2.13;;;2.03;;
4694;SDS011;2361;49.540;8.390;2023-08-17T00:51:24;1.90;;;1.80;;
4694;SDS011;2361;49.540;8.390;2023-08-17T00:53:52;2.03;;;1.93;;
4694;SDS011;2361;49.540;8.390;2023-08-17T00:56:24;4.23;;;2.13;;
4694;SDS011;2361;49.540;8.390;2023-08-17T00:58:53;2.13;;;1.70;;
4694;SDS011;2361;49.540;8.390;2023-08-17T01:01:20;1.77;;;1.67;;
4694;SDS011;2361;49.540;8.390;2023-08-17T01:03:48;2.20;;;2.00;;
4694;SDS011;2361;49.540;8.390;2023-08-17T01:06:16;1.53;;;1.47;;
4694;SDS011;2361;49.540;8.390;2023-08-17T01:08:42;1.60;;;1.50;;
4694;SDS011;2361;49.540;8.390;2023-08-17T01:14:02;1.90;;;1.80;;
4694;SDS011;2361;49.540;8.390;2023-08-17T01:20:14;2.77;;;2.00;;
4694;SDS011;2361;49.540;8.390;2023-08-17T01:22:45;2.20;;;2.10;;
4694;SDS011;2361;49.540;8.390;2023-08-17T01:25:15;1.80;;;1.70;;
4694;SDS011;2361;49.540;8.390;2023-08-17T01:27:43;3.97;;;2.30;;
4694;SDS011;2361;49.540;8.390;2023-08-17T01:30:13;2.50;;;2.30;;
4694;SDS011;2361;49.540;8.390;2023-08-17T01:32:54;2.00;;;1.90;;
4694;SDS011;2361;49.540;8.390;2023-08-17T01:38:17;5.23;;;2.23;;
4694;SDS011;2361;49.540;8.390;2023-08-17T01:40:45;2.27;;;2.07;;
4694;SDS011;2361;49.540;8.390;2023-08-17T01:43:14;1.80;;;1.70;;
4694;SDS011;2361;49.540;8.390;2023-08-17T01:45:43;2.80;;;2.30;;
4694;SDS011;2361;49.540;8.390;2023-08-17T01:48:10;3.03;;;1.97;;
4694;SDS011;2361;49.540;8.390;2023-08-17T01:50:37;2.47;;;2.07;;
4694;SDS011;2361;49.540;8.390;2023-08-17T01:53:04;2.23;;;2.03;;
4694;SDS011;2361;49.540;8.390;2023-08-17T01:55:31;2.47;;;2.27;;
4694;SDS011;2361;49.540;8.390;2023-08-17T01:57:58;2.50;;;2.30;;
4694;SDS011;2361;49.540;8.390;2023-08-17T02:00:24;2.67;;;2.47;;
4694;SDS011;2361;49.540;8.390;2023-08-17T02:02:52;2.60;;;2.40;;
4694;SDS011;2361;49.540;8.390;2023-08-17T02:05:18;2.10;;;1.90;;
4694;SDS011;2361;49.540;8.390;2023-08-17T02:07:45;2.40;;;2.30;;
4694;SDS011;2361;49.540;8.390;2023-08-17T02:10:12;3.53;;;2.67;;
4694;SDS011;2361;49.540;8.390;2023-08-17T02:12:39;3.90;;;2.93;;
4694;SDS011;2361;49.540;8.390;2023-08-17T02:15:06;2.40;;;2.30;;
4694;SDS011;2361;49.540;8.390;2023-08-17T02:17:34;3.20;;;2.10;;
4694;SDS011;2361;49.540;8.390;2023-08-17T02:20:01;1.90;;;1.80;;
4694;SDS011;2361;49.540;8.390;2023-08-17T02:22:30;2.37;;;2.07;;
4694;SDS011;2361;49.540;8.390;2023-08-17T02:24:56;2.13;;;2.03;;
4694;SDS011;2361;49.540;8.390;2023-08-17T02:27:23;2.10;;;2.00;;
4694;SDS011;2361;49.540;8.390;2023-08-17T02:29:51;2.43;;;2.20;;
4694;SDS011;2361;49.540;8.390;2023-08-17T02:32:18;2.47;;;2.27;;
4694;SDS011;2361;49.540;8.390;2023-08-17T02:34:45;3.00;;;2.70;;
4694;SDS011;2361;49.540;8.390;2023-08-17T02:37:12;3.00;;;2.70;;
4694;SDS011;2361;49.540;8.390;2023-08-17T02:39:39;5.50;;;2.20;;
4694;SDS011;2361;49.540;8.390;2023-08-17T02:42:06;2.50;;;2.33;;
4694;SDS011;2361;49.540;8.390;2023-08-17T02:44:32;2.10;;;1.90;;
4694;SDS011;2361;49.540;8.390;2023-08-17T02:46:59;2.23;;;2.13;;
4694;SDS011;2361;49.540;8.390;2023-08-17T02:49:26;2.40;;;2.23;;
4694;SDS011;2361;49.540;8.390;2023-08-17T02:51:53;2.67;;;2.47;;
4694;SDS011;2361;49.540;8.390;2023-08-17T02:54:20;3.57;;;2.70;;
4694;SDS011;2361;49.540;8.390;2023-08-17T02:56:47;3.20;;;2.20;;
4694;SDS011;2361;49.540;8.390;2023-08-17T02:59:14;3.33;;;2.90;;
4694;SDS011;2361;49.540;8.390;2023-08-17T03:01:41;3.83;;;3.20;;
4694;SDS011;2361;49.540;8.390;2023-08-17T03:04:08;2.90;;;2.67;;
4694;SDS011;2361;49.540;8.390;2023-08-17T03:06:35;3.53;;;3.10;;
4694;SDS011;2361;49.540;8.390;2023-08-17T03:09:02;4.00;;;3.17;;
4694;SDS011;2361;49.540;8.390;2023-08-17T03:11:29;2.40;;;2.20;;
4694;SDS011;2361;49.540;8.390;2023-08-17T03:13:56;3.00;;;2.73;;
4694;SDS011;2361;49.540;8.390;2023-08-17T03:16:29;4.43;;;2.80;;
4694;SDS011;2361;49.540;8.390;2023-08-17T03:18:57;2.60;;;2.40;;
4694;SDS011;2361;49.540;8.390;2023-08-17T03:21:25;3.33;;;2.57;;
4694;SDS011;2361;49.540;8.390;2023-08-17T03:23:51;5.47;;;2.80;;
4694;SDS011;2361;49.540;8.390;2023-08-17T03:26:19;3.87;;;2.50;;
4694;SDS011;2361;49.540;8.390;2023-08-17T03:28:46;4.03;;;2.73;;
4694;SDS011;2361;49.540;8.390;2023-08-17T03:31:12;2.93;;;2.73;;
4694;SDS011;2361;49.540;8.390;2023-08-17T03:33:39;2.70;;;2.30;;
4694;SDS011;2361;49.540;8.390;2023-08-17T03:36:07;1.77;;;1.67;;
4694;SDS011;2361;49.540;8.390;2023-08-17T03:38:33;1.60;;;1.50;;
4694;SDS011;2361;49.540;8.390;2023-08-17T03:41:00;1.90;;;1.80;;
4694;SDS011;2361;49.540;8.390;2023-08-17T03:43:27;2.50;;;2.17;;
4694;SDS011;2361;49.540;8.390;2023-08-17T03:45:54;2.73;;;2.53;;
4694;SDS011;2361;49.540;8.390;2023-08-17T03:48:21;3.50;;;2.57;;
4694;SDS011;2361;49.540;8.390;2023-08-17T03:50:52;3.67;;;3.27;;
4694;SDS011;2361;49.540;8.390;2023-08-17T03:53:20;3.60;;;2.87;;
4694;SDS011;2361;49.540;8.390;2023-08-17T03:55:50;3.70;;;3.30;;
4694;SDS011;2361;49.540;8.390;2023-08-17T03:58:17;6.80;;;3.73;;
4694;SDS011;2361;49.540;8.390;2023-08-17T04:00:51;4.90;;;3.67;;
4694;SDS011;2361;49.540;8.390;2023-08-17T04:03:19;11.30;;;4.03;;
4694;SDS011;2361;49.540;8.390;2023-08-17T04:05:46;7.90;;;4.53;;
4694;SDS011;2361;49.540;8.390;2023-08-17T04:08:13;6.60;;;4.33;;
4694;SDS011;2361;49.540;8.390;2023-08-17T04:10:40;9.23;;;5.00;;
4694;SDS011;2361;49.540;8.390;2023-08-17T04:13:07;7.10;;;4.60;;
4694;SDS011;2361;49.540;8.390;2023-08-17T04:15:34;8.40;;;5.87;;
4694;SDS011;2361;49.540;8.390;2023-08-17T04:18:01;7.77;;;5.13;;
4694;SDS011;2361;49.540;8.390;2023-08-17T04:20:28;6.97;;;4.80;;
4694;SDS011;2361;49.540;8.390;2023-08-17T04:22:54;8.87;;;5.70;;
4694;SDS011;2361;49.540;8.390;2023-08-17T04:25:21;8.50;;;5.60;;
4694;SDS011;2361;49.540;8.390;2023-08-17T04:27:48;9.03;;;4.87;;
4694;SDS011;2361;49.540;8.390;2023-08-17T04:30:15;8.40;;;5.30;;
4694;SDS011;2361;49.540;8.390;2023-08-17T04:32:42;6.13;;;3.90;;
4694;SDS011;2361;49.540;8.390;2023-08-17T04:35:09;7.70;;;4.50;;
4694;SDS011;2361;49.540;8.390;2023-08-17T04:37:37;8.53;;;5.40;;
4694;SDS011;2361;49.540;8.390;2023-08-17T04:40:04;11.07;;;6.07;;
4694;SDS011;2361;49.540;8.390;2023-08-17T04:42:32;13.30;;;6.83;;
4694;SDS011;2361;49.540;8.390;2023-08-17T04:44:58;7.80;;;4.97;;
4694;SDS011;2361;49.540;8.390;2023-08-17T04:47:25;8.93;;;5.10;;
4694;SDS011;2361;49.540;8.390;2023-08-17T04:49:53;12.60;;;6.03;;
4694;SDS011;2361;49.540;8.390;2023-08-17T04:52:20;10.83;;;6.33;;
4694;SDS011;2361;49.540;8.390;2023-08-17T04:54:47;10.73;;;6.03;;
4694;SDS011;2361;49.540;8.390;2023-08-17T04:57:14;14.57;;;6.77;;
4694;SDS011;2361;49.540;8.390;2023-08-17T04:59:40;12.10;;;6.13;;
4694;SDS011;2361;49.540;8.390;2023-08-17T05:02:07;12.97;;;7.03;;
4694;SDS011;2361;49.540;8.390;2023-08-17T05:04:35;11.60;;;6.27;;
4694;SDS011;2361;49.540;8.390;2023-08-17T05:07:02;12.07;;;5.87;;
4694;SDS011;2361;49.540;8.390;2023-08-17T05:09:29;11.20;;;6.10;;
4694;SDS011;2361;49.540;8.390;2023-08-17T05:11:56;14.00;;;6.93;;
4694;SDS011;2361;49.540;8.390;2023-08-17T05:14:23;12.70;;;6.40;;
4694;SDS011;2361;49.540;8.390;2023-08-17T05:16:50;13.53;;;6.77;;
4694;SDS011;2361;49.540;8.390;2023-08-17T05:19:17;15.30;;;7.10;;
4694;SDS011;2361;49.540;8.390;2023-08-17T05:21:44;14.67;;;6.30;;
4694;SDS011;2361;49.540;8.390;2023-08-17T05:24:11;16.07;;;8.00;;
4694;SDS011;2361;49.540;8.390;2023-08-17T05:26:38;14.40;;;6.77;;
4694;SDS011;2361;49.540;8.390;2023-08-17T05:29:05;15.17;;;6.60;;
4694;SDS011;2361;49.540;8.390;2023-08-17T05:31:32;11.47;;;6.17;;
4694;SDS011;2361;49.540;8.390;2023-08-17T05:33:59;12.10;;;7.07;;
4694;SDS011;2361;49.540;8.390;2023-08-17T05:36:25;10.63;;;5.60;;
4694;SDS011;2361;49.540;8.390;2023-08-17T05:38:52;12.77;;;6.57;;
4694;SDS011;2361;49.540;8.390;2023-08-17T05:41:19;12.40;;;6.20;;
4694;SDS011;2361;49.540;8.390;2023-08-17T05:43:47;9.87;;;5.87;;
4694;SDS011;2361;49.540;8.390;2023-08-17T05:46:14;11.70;;;5.50;;
4694;SDS011;2361;49.540;8.390;2023-08-17T05:48:41;10.67;;;6.03;;
4694;SDS011;2361;49.540;8.390;2023-08-17T05:51:09;16.40;;;7.30;;
4694;SDS011;2361;49.540;8.390;2023-08-17T05:53:36;9.30;;;5.30;;
4694;SDS011;2361;49.540;8.390;2023-08-17T05:56:02;16.50;;;8.40;;
4694;SDS011;2361;49.540;8.390;2023-08-17T05:58:29;9.73;;;5.37;;
4694;SDS011;2361;49.540;8.390;2023-08-17T06:01:03;16.67;;;8.40;;
4694;SDS011;2361;49.540;8.390;2023-08-17T06:03:35;16.27;;;8.30;;
4694;SDS011;2361;49.540;8.390;2023-08-17T06:06:03;10.17;;;6.30;;
4694;SDS011;2361;49.540;8.390;2023-08-17T06:08:32;8.87;;;5.70;;
4694;SDS011;2361;49.540;8.390;2023-08-17T06:10:59;9.97;;;6.17;;
4694;SDS011;2361;49.540;8.390;2023-08-17T06:13:26;17.13;;;8.23;;
4694;SDS011;2361;49.540;8.390;2023-08-17T06:15:53;15.03;;;8.67;;
4694;SDS011;2361;49.540;8.390;2023-08-17T06:18:23;12.27;;;7.17;;
4694;SDS011;2361;49.540;8.390;2023-08-17T06:20:50;14.60;;;7.57;;
4694;SDS011;2361;49.540;8.390;2023-08-17T06:23:19;13.10;;;7.30;;
4694;SDS011;2361;49.540;8.390;2023-08-17T06:25:47;8.10;;;5.40;;
4694;SDS011;2361;49.540;8.390;2023-08-17T06:28:14;13.23;;;7.23;;
4694;SDS011;2361;49.540;8.390;2023-08-17T06:30:41;9.47;;;6.43;;
4694;SDS011;2361;49.540;8.390;2023-08-17T06:33:08;10.73;;;6.10;;
4694;SDS011;2361;49.540;8.390;2023-08-17T06:35:35;8.10;;;4.33;;
4694;SDS011;2361;49.540;8.390;2023-08-17T06:38:02;12.77;;;7.50;;
4694;SDS011;2361;49.540;8.390;2023-08-17T06:40:29;11.00;;;6.17;;
4694;SDS011;2361;49.540;8.390;2023-08-17T06:42:56;8.20;;;5.30;;
4694;SDS011;2361;49.540;8.390;2023-08-17T06:45:23;13.40;;;7.90;;
4694;SDS011;2361;49.540;8.390;2023-08-17T06:47:49;12.30;;;7.57;;
4694;SDS011;2361;49.540;8.390;2023-08-17T06:50:16;12.53;;;6.93;;
4694;SDS011;2361;49.540;8.390;2023-08-17T06:52:43;12.43;;;7.30;;
4694;SDS011;2361;49.540;8.390;2023-08-17T06:55:10;12.17;;;7.43;;
4694;SDS011;2361;49.540;8.390;2023-08-17T06:57:37;14.70;;;8.40;;
4694;SDS011;2361;49.540;8.390;2023-08-17T07:00:04;9.60;;;6.07;;
4694;SDS011;2361;49.540;8.390;2023-08-17T07:02:32;10.13;;;7.07;;
4694;SDS011;2361;49.540;8.390;2023-08-17T07:05:17;13.77;;;8.63;;
4694;SDS011;2361;49.540;8.390;2023-08-17T07:07:44;12.00;;;7.60;;
4694;SDS011;2361;49.540;8.390;2023-08-17T07:10:11;11.27;;;7.47;;
4694;SDS011;2361;49.540;8.390;2023-08-17T07:12:38;9.77;;;5.93;;
4694;SDS011;2361;49.540;8.390;2023-08-17T07:15:11;12.60;;;7.07;;
4694;SDS011;2361;49.540;8.390;2023-08-17T07:17:39;10.97;;;6.90;;
4694;SDS011;2361;49.540;8.390;2023-08-17T07:20:06;8.80;;;5.60;;
4694;SDS011;2361;49.540;8.390;2023-08-17T07:22:42;6.87;;;4.20;;
4694;SDS011;2361;49.540;8.390;2023-08-17T07:25:09;13.87;;;6.63;;
4694;SDS011;2361;49.540;8.390;2023-08-17T07:27:36;8.50;;;5.67;;
4694;SDS011;2361;49.540;8.390;2023-08-17T07:30:03;11.97;;;7.30;;
4694;SDS011;2361;49.540;8.390;2023-08-17T07:32:31;13.97;;;7.50;;
4694;SDS011;2361;49.540;8.390;2023-08-17T07:34:58;13.00;;;7.67;;
4694;SDS011;2361;49.540;8.390;2023-08-17T07:37:25;8.40;;;5.23;;
4694;SDS011;2361;49.540;8.390;2023-08-17T07:39:59;12.40;;;7.50;;
4694;SDS011;2361;49.540;8.390;2023-08-17T07:42:26;8.93;;;5.60;;
4694;SDS011;2361;49.540;8.390;2023-08-17T07:44:53;10.10;;;6.90;;
4694;SDS011;2361;49.540;8.390;2023-08-17T07:47:20;9.07;;;6.50;;
4694;SDS011;2361;49.540;8.390;2023-08-17T07:49:47;8.73;;;6.30;;
4694;SDS011;2361;49.540;8.390;2023-08-17T07:52:15;8.10;;;6.00;;
4694;SDS011;2361;49.540;8.390;2023-08-17T07:54:42;8.20;;;5.30;;
4694;SDS011;2361;49.540;8.390;2023-08-17T07:57:09;9.17;;;6.73;;
4694;SDS011;2361;49.540;8.390;2023-08-17T07:59:36;8.50;;;6.30;;
4694;SDS011;2361;49.540;8.390;2023-08-17T08:02:03;7.23;;;4.93;;
4694;SDS011;2361;49.540;8.390;2023-08-17T08:04:30;8.37;;;4.77;;
4694;SDS011;2361;49.540;8.390;2023-08-17T08:06:57;10.40;;;6.50;;
4694;SDS011;2361;49.540;8.390;2023-08-17T08:09:24;10.33;;;6.43;;
4694;SDS011;2361;49.540;8.390;2023-08-17T08:11:51;9.97;;;7.33;;
4694;SDS011;2361;49.540;8.390;2023-08-17T08:14:18;11.60;;;6.37;;
4694;SDS011;2361;49.540;8.390;2023-08-17T08:16:45;10.77;;;7.20;;
4694;SDS011;2361;49.540;8.390;2023-08-17T08:19:13;7.00;;;5.20;;
4694;SDS011;2361;49.540;8.390;2023-08-17T08:21:40;5.87;;;4.13;;
4694;SDS011;2361;49.540;8.390;2023-08-17T08:24:07;11.10;;;6.30;;
4694;SDS011;2361;49.540;8.390;2023-08-17T08:26:43;9.37;;;6.00;;
4694;SDS011;2361;49.540;8.390;2023-08-17T08:29:10;7.90;;;4.60;;
4694;SDS011;2361;49.540;8.390;2023-08-17T08:31:37;11.07;;;7.60;;
4694;SDS011;2361;49.540;8.390;2023-08-17T08:34:04;13.67;;;7.50;;
4694;SDS011;2361;49.540;8.390;2023-08-17T08:36:31;15.47;;;8.50;;
4694;SDS011;2361;49.540;8.390;2023-08-17T08:38:58;11.37;;;8.07;;
4694;SDS011;2361;49.540;8.390;2023-08-17T08:41:25;10.97;;;7.83;;
4694;SDS011;2361;49.540;8.390;2023-08-17T08:43:54;7.80;;;6.47;;
4694;SDS011;2361;49.540;8.390;2023-08-17T08:46:21;10.10;;;6.47;;
4694;SDS011;2361;49.540;8.390;2023-08-17T08:48:53;11.83;;;6.40;;
4694;SDS011;2361;49.540;8.390;2023-08-17T08:51:23;7.23;;;6.13;;
4694;SDS011;2361;49.540;8.390;2023-08-17T08:54:05;8.40;;;5.97;;
4694;SDS011;2361;49.540;8.390;2023-08-17T08:56:40;5.47;;;4.53;;
4694;SDS011;2361;49.540;8.390;2023-08-17T08:59:13;7.37;;;5.60;;
4694;SDS011;2361;49.540;8.390;2023-08-17T09:01:41;7.57;;;6.30;;
4694;SDS011;2361;49.540;8.390;2023-08-17T09:04:08;7.70;;;5.93;;
4694;SDS011;2361;49.540;8.390;2023-08-17T09:06:35;8.50;;;7.13;;
4694;SDS011;2361;49.540;8.390;2023-08-17T09:09:05;8.70;;;6.73;;
4694;SDS011;2361;49.540;8.390;2023-08-17T09:11:32;7.37;;;6.20;;
4694;SDS011;2361;49.540;8.390;2023-08-17T09:13:59;9.37;;;7.13;;
4694;SDS011;2361;49.540;8.390;2023-08-17T09:16:27;6.97;;;6.27;;
4694;SDS011;2361;49.540;8.390;2023-08-17T09:18:54;9.50;;;6.47;;
4694;SDS011;2361;49.540;8.390;2023-08-17T09:21:22;10.50;;;7.53;;
4694;SDS011;2361;49.540;8.390;2023-08-17T09:23:51;8.13;;;6.80;;
4694;SDS011;2361;49.540;8.390;2023-08-17T09:26:24;8.80;;;6.50;;
4694;SDS011;2361;49.540;8.390;2023-08-17T09:28:51;8.13;;;6.53;;
4694;SDS011;2361;49.540;8.390;2023-08-17T09:31:20;12.60;;;7.33;;
4694;SDS011;2361;49.540;8.390;2023-08-17T09:33:50;5.67;;;4.83;;
4694;SDS011;2361;49.540;8.390;2023-08-17T09:36:21;5.97;;;5.40;;
4694;SDS011;2361;49.540;8.390;2023-08-17T09:38:50;11.80;;;7.87;;
4694;SDS011;2361;49.540;8.390;2023-08-17T09:41:18;6.60;;;5.90;;
4694;SDS011;2361;49.540;8.390;2023-08-17T09:43:48;6.43;;;5.80;;
4694;SDS011;2361;49.540;8.390;2023-08-17T09:46:15;4.60;;;4.03;;
4694;SDS011;2361;49.540;8.390;2023-08-17T09:48:43;7.10;;;6.10;;
4694;SDS011;2361;49.540;8.390;2023-08-17T09:51:16;9.47;;;6.20;;
4694;SDS011;2361;49.540;8.390;2023-08-17T09:53:43;9.30;;;6.90;;
4694;SDS011;2361;49.540;8.390;2023-08-17T09:56:10;4.57;;;4.17;;
4694;SDS011;2361;49.540;8.390;2023-08-17T09:58:41;4.87;;;4.47;;
4694;SDS011;2361;49.540;8.390;2023-08-17T10:01:08;6.73;;;5.27;;
4694;SDS011;2361;49.540;8.390;2023-08-17T10:03:36;6.97;;;5.80;;
4694;SDS011;2361;49.540;8.390;2023-08-17T10:06:05;7.17;;;6.47;;
4694;SDS011;2361;49.540;8.390;2023-08-17T10:08:39;7.90;;;5.90;;
4694;SDS011;2361;49.540;8.390;2023-08-17T10:11:13;6.40;;;5.70;;
4694;SDS011;2361;49.540;8.390;2023-08-17T10:13:48;5.50;;;5.00;;
4694;SDS011;2361;49.540;8.390;2023-08-17T10:24:47;6.53;;;5.10;;
4694;SDS011;2361;49.540;8.390;2023-08-17T10:27:15;7.20;;;5.73;;
4694;SDS011;2361;49.540;8.390;2023-08-17T10:29:43;4.10;;;3.70;;
4694;SDS011;2361;49.540;8.390;2023-08-17T10:32:11;6.23;;;5.23;;
4694;SDS011;2361;49.540;8.390;2023-08-17T10:34:47;5.93;;;5.30;;
4694;SDS011;2361;49.540;8.390;2023-08-17T10:37:15;8.13;;;6.40;;
4694;SDS011;2361;49.540;8.390;2023-08-17T10:39:47;7.50;;;6.00;;
4694;SDS011;2361;49.540;8.390;2023-08-17T10:42:15;6.57;;;5.87;;
4694;SDS011;2361;49.540;8.390;2023-08-17T10:44:59;6.33;;;5.73;;
4694;SDS011;2361;49.540;8.390;2023-08-17T10:47:31;5.20;;;4.70;;
4694;SDS011;2361;49.540;8.390;2023-08-17T10:52:36;6.07;;;5.40;;
4694;SDS011;2361;49.540;8.390;2023-08-17T10:55:05;5.07;;;4.57;;
4694;SDS011;2361;49.540;8.390;2023-08-17T11:00:16;5.13;;;4.63;;
4694;SDS011;2361;49.540;8.390;2023-08-17T11:03:01;6.70;;;5.80;;
4694;SDS011;2361;49.540;8.390;2023-08-17T11:05:52;4.63;;;4.23;;
4694;SDS011;2361;49.540;8.390;2023-08-17T11:08:28;4.90;;;3.57;;
4694;SDS011;2361;49.540;8.390;2023-08-17T11:11:04;5.97;;;5.37;;
4694;SDS011;2361;49.540;8.390;2023-08-17T11:13:39;3.90;;;3.60;;
4694;SDS011;2361;49.540;8.390;2023-08-17T11:16:08;7.00;;;5.60;;
4694;SDS011;2361;49.540;8.390;2023-08-17T11:18:39;3.67;;;3.37;;
4694;SDS011;2361;49.540;8.390;2023-08-17T11:21:10;6.37;;;4.90;;
4694;SDS011;2361;49.540;8.390;2023-08-17T11:23:45;5.70;;;5.20;;
4694;SDS011;2361;49.540;8.390;2023-08-17T11:26:12;4.43;;;3.90;;
4694;SDS011;2361;49.540;8.390;2023-08-17T11:28:43;5.67;;;5.10;;
4694;SDS011;2361;49.540;8.390;2023-08-17T11:31:11;4.30;;;3.90;;
4694;SDS011;2361;49.540;8.390;2023-08-17T11:33:42;3.67;;;3.37;;
4694;SDS011;2361;49.540;8.390;2023-08-17T11:36:09;4.27;;;3.97;;
4694;SDS011;2361;49.540;8.390;2023-08-17T11:38:37;4.83;;;4.43;;
4694;SDS011;2361;49.540;8.390;2023-08-17T11:41:07;6.00;;;4.90;;
4694;SDS011;2361;49.540;8.390;2023-08-17T11:43:35;5.47;;;4.53;;
4694;SDS011;2361;49.540;8.390;2023-08-17T11:46:04;4.63;;;4.07;;
4694;SDS011;2361;49.540;8.390;2023-08-17T11:48:32;4.90;;;4.43;;
4694;SDS011;2361;49.540;8.390;2023-08-17T11:51:02;4.00;;;3.70;;
4694;SDS011;2361;49.540;8.390;2023-08-17T11:53:36;3.70;;;3.40;;
4694;SDS011;2361;49.540;8.390;2023-08-17T11:56:05;3.83;;;3.53;;
4694;SDS011;2361;49.540;8.390;2023-08-17T11:58:36;4.83;;;4.43;;
4694;SDS011;2361;49.540;8.390;2023-08-17T12:01:11;5.87;;;4.10;;
4694;SDS011;2361;49.540;8.390;2023-08-17T12:03:41;4.47;;;3.70;;
4694;SDS011;2361;49.540;8.390;2023-08-17T12:06:09;3.70;;;3.40;;
4694;SDS011;2361;49.540;8.390;2023-08-17T12:08:41;3.80;;;3.50;;
4694;SDS011;2361;49.540;8.390;2023-08-17T12:11:15;3.53;;;3.33;;
4694;SDS011;2361;49.540;8.390;2023-08-17T12:13:48;5.40;;;4.90;;
4694;SDS011;2361;49.540;8.390;2023-08-17T12:16:17;4.50;;;4.20;;
4694;SDS011;2361;49.540;8.390;2023-08-17T12:18:49;3.87;;;3.50;;
4694;SDS011;2361;49.540;8.390;2023-08-17T12:21:21;3.33;;;3.13;;
4694;SDS011;2361;49.540;8.390;2023-08-17T12:23:49;3.50;;;3.20;;
4694;SDS011;2361;49.540;8.390;2023-08-17T12:26:20;5.70;;;5.17;;
4694;SDS011;2361;49.540;8.390;2023-08-17T12:28:48;5.50;;;4.80;;
4694;SDS011;2361;49.540;8.390;2023-08-17T12:31:20;5.33;;;4.93;;
4694;SDS011;2361;49.540;8.390;2023-08-17T12:33:50;4.20;;;3.90;;
4694;SDS011;2361;49.540;8.390;2023-08-17T12:36:17;5.20;;;4.80;;
4694;SDS011;2361;49.540;8.390;2023-08-17T12:38:46;4.93;;;4.53;;
4694;SDS011;2361;49.540;8.390;2023-08-17T12:41:14;4.83;;;4.43;;
4694;SDS011;2361;49.540;8.390;2023-08-17T12:43:42;3.70;;;3.37;;
4694;SDS011;2361;49.540;8.390;2023-08-17T12:46:09;4.90;;;4.50;;
4694;SDS011;2361;49.540;8.390;2023-08-17T12:48:37;3.67;;;3.37;;
4694;SDS011;2361;49.540;8.390;2023-08-17T12:51:07;3.60;;;3.27;;
4694;SDS011;2361;49.540;8.390;2023-08-17T12:53:34;4.53;;;4.13;;
4694;SDS011;2361;49.540;8.390;2023-08-17T12:56:01;5.47;;;4.07;;
4694;SDS011;2361;49.540;8.390;2023-08-17T12:58:28;8.20;;;4.53;;
4694;SDS011;2361;49.540;8.390;2023-08-17T13:00:55;5.00;;;4.60;;
4694;SDS011;2361;49.540;8.390;2023-08-17T13:03:22;6.53;;;4.77;;
4694;SDS011;2361;49.540;8.390;2023-08-17T13:05:49;7.03;;;4.80;;
4694;SDS011;2361;49.540;8.390;2023-08-17T13:08:16;5.00;;;4.60;;
4694;SDS011;2361;49.540;8.390;2023-08-17T13:10:43;3.80;;;3.47;;
4694;SDS011;2361;49.540;8.390;2023-08-17T13:13:10;5.70;;;5.20;;
4694;SDS011;2361;49.540;8.390;2023-08-17T13:15:37;5.33;;;4.70;;
4694;SDS011;2361;49.540;8.390;2023-08-17T13:18:04;3.77;;;3.50;;
4694;SDS011;2361;49.540;8.390;2023-08-17T13:20:31;4.50;;;4.13;;
4694;SDS011;2361;49.540;8.390;2023-08-17T13:22:59;3.90;;;3.60;;
4694;SDS011;2361;49.540;8.390;2023-08-17T13:25:25;4.73;;;4.23;;
4694;SDS011;2361;49.540;8.390;2023-08-17T13:27:52;4.40;;;4.00;;
4694;SDS011;2361;49.540;8.390;2023-08-17T13:30:19;5.47;;;4.80;;
4694;SDS011;2361;49.540;8.390;2023-08-17T13:32:47;3.30;;;3.00;;
4694;SDS011;2361;49.540;8.390;2023-08-17T13:35:14;4.60;;;4.20;;
4694;SDS011;2361;49.540;8.390;2023-08-17T13:37:41;5.17;;;4.77;;
4694;SDS011;2361;49.540;8.390;2023-08-17T13:40:08;6.00;;;5.40;;
4694;SDS011;2361;49.540;8.390;2023-08-17T13:42:36;5.07;;;3.37;;
4694;SDS011;2361;49.540;8.390;2023-08-17T13:45:03;5.73;;;5.23;;
4694;SDS011;2361;49.540;8.390;2023-08-17T13:47:30;3.77;;;3.47;;
4694;SDS011;2361;49.540;8.390;2023-08-17T13:49:57;4.97;;;4.57;;
4694;SDS011;2361;49.540;8.390;2023-08-17T13:52:24;5.63;;;5.10;;
4694;SDS011;2361;49.540;8.390;2023-08-17T13:54:52;4.50;;;4.13;;
4694;SDS011;2361;49.540;8.390;2023-08-17T13:57:19;4.43;;;4.03;;
4694;SDS011;2361;49.540;8.390;2023-08-17T13:59:46;4.50;;;4.20;;
4694;SDS011;2361;49.540;8.390;2023-08-17T14:02:13;5.10;;;4.10;;
4694;SDS011;2361;49.540;8.390;2023-08-17T14:04:40;4.10;;;3.80;;
4694;SDS011;2361;49.540;8.390;2023-08-17T14:07:07;4.33;;;4.03;;
4694;SDS011;2361;49.540;8.390;2023-08-17T14:09:34;4.40;;;4.10;;
4694;SDS011;2361;49.540;8.390;2023-08-17T14:12:01;4.83;;;3.53;;
4694;SDS011;2361;49.540;8.390;2023-08-17T14:14:28;4.73;;;3.73;;
4694;SDS011;2361;49.540;8.390;2023-08-17T14:16:55;3.93;;;3.63;;
4694;SDS011;2361;49.540;8.390;2023-08-17T14:19:23;4.17;;;3.87;;
4694;SDS011;2361;49.540;8.390;2023-08-17T14:21:50;3.83;;;3.63;;
4694;SDS011;2361;49.540;8.390;2023-08-17T14:24:18;3.27;;;3.07;;
4694;SDS011;2361;49.540;8.390;2023-08-17T14:26:45;3.97;;;3.67;;
4694;SDS011;2361;49.540;8.390;2023-08-17T14:29:12;3.40;;;3.20;;
4694;SDS011;2361;49.540;8.390;2023-08-17T14:31:39;3.00;;;2.67;;
4694;SDS011;2361;49.540;8.390;2023-08-17T14:34:06;3.60;;;3.30;;
4694;SDS011;2361;49.540;8.390;2023-08-17T14:36:33;3.60;;;3.30;;
4694;SDS011;2361;49.540;8.390;2023-08-17T14:39:00;3.77;;;3.17;;
4694;SDS011;2361;49.540;8.390;2023-08-17T14:41:27;3.20;;;3.00;;
4694;SDS011;2361;49.540;8.390;2023-08-17T14:43:58;4.03;;;3.63;;
4694;SDS011;2361;49.540;8.390;2023-08-17T14:46:28;6.30;;;3.27;;
4694;SDS011;2361;49.540;8.390;2023-08-17T14:48:56;3.17;;;2.97;;
4694;SDS011;2361;49.540;8.390;2023-08-17T14:51:24;3.83;;;3.53;;
4694;SDS011;2361;49.540;8.390;2023-08-17T14:53:56;3.23;;;3.03;;
4694;SDS011;2361;49.540;8.390;2023-08-17T14:56:23;3.40;;;3.10;;
4694;SDS011;2361;49.540;8.390;2023-08-17T14:58:50;3.53;;;3.27;;
4694;SDS011;2361;49.540;8.390;2023-08-17T15:01:17;3.60;;;3.40;;
4694;SDS011;2361;49.540;8.390;2023-08-17T15:03:44;3.90;;;3.60;;
4694;SDS011;2361;49.540;8.390;2023-08-17T15:06:13;3.27;;;3.07;;
4694;SDS011;2361;49.540;8.390;2023-08-17T15:08:59;3.23;;;2.93;;
4694;SDS011;2361;49.540;8.390;2023-08-17T15:11:26;3.27;;;3.07;;
4694;SDS011;2361;49.540;8.390;2023-08-17T15:13:53;3.47;;;3.17;;
4694;SDS011;2361;49.540;8.390;2023-08-17T15:16:19;3.10;;;2.90;;
4694;SDS011;2361;49.540;8.390;2023-08-17T15:18:51;6.57;;;5.97;;
4694;SDS011;2361;49.540;8.390;2023-08-17T15:21:19;14.00;;;9.03;;
4694;SDS011;2361;49.540;8.390;2023-08-17T15:23:46;4.87;;;4.40;;
4694;SDS011;2361;49.540;8.390;2023-08-17T15:26:14;2.80;;;2.60;;
4694;SDS011;2361;49.540;8.390;2023-08-17T15:28:41;3.20;;;3.00;;
4694;SDS011;2361;49.540;8.390;2023-08-17T15:31:08;2.90;;;2.70;;
4694;SDS011;2361;49.540;8.390;2023-08-17T15:33:42;3.10;;;2.90;;
4694;SDS011;2361;49.540;8.390;2023-08-17T15:36:09;3.13;;;2.90;;
4694;SDS011;2361;49.540;8.390;2023-08-17T15:38:36;2.40;;;2.30;;
4694;SDS011;2361;49.540;8.390;2023-08-17T15:41:03;3.30;;;3.03;;
4694;SDS011;2361;49.540;8.390;2023-08-17T15:43:30;3.10;;;2.90;;